Friday, January 18, 2019, 3:29 AM EST
Back to Local

KSNC, Chester, Chester Airport

Location: Chester, CT, United States Lat: 41.384
Local Time: 3:29 AM EST ( 8:29 GMT) Lon: -72.506
Time Zone: US/Eastern Elev: 416 ft

Show me the last for .
Show Coded

Time T Td Feel RH Dir Speed Gust Alt SLP Vis Weather Sky Remarks
2019-01-18 03:15 27 16 - 63 - Calm - 30.17 - 8 -SN FEW001 SCT015 BKN029 None
2019-01-18 02:55 28 14 - 54 - Calm - 30.18 - 9 -SN SCT012 BKN023 OVC065 None
2019-01-18 02:35 27 12 - 53 - Calm - 30.19 - 10 BKN015 BKN023 OVC036 None
2019-01-18 02:15 27 12 - 53 - Calm - 30.19 - 10 SCT030 BKN038 OVC046 None
2019-01-18 01:55 27 12 - 53 - Calm - 30.20 - 10 FEW030 BKN038 OVC065 None
2019-01-18 01:35 27 12 - 53 - Calm - 30.20 - 10 SCT029 BKN035 OVC070 None
2019-01-18 01:15 27 12 - 53 - Calm - 30.21 - 10 SCT029 BKN035 OVC070 None
2019-01-18 00:55 27 10 - 49 - Calm - 30.21 - 10 BKN029 BKN034 BKN065 None
2019-01-18 00:35 27 10 - 49 - Calm - 30.22 - 10 SCT034 BKN060 BKN070 None
2019-01-18 00:15 27 10 - 49 - Calm - 30.23 - 10 BKN065 BKN075 BKN090 None
2019-01-17 23:55 27 9 - 45 - Calm - 30.24 - 10 FEW030 BKN070 OVC085 None
2019-01-17 23:35 27 9 - 45 - Calm - 30.25 - 10 FEW029 BKN085 OVC100 None
2019-01-17 23:15 27 9 23 45 30° 3 - 30.25 - 10 FEW027 OVC100 None
2019-01-17 22:55 27 9 - 45 - Calm - 30.25 - 10 FEW028 BKN100 None
2019-01-17 22:35 25 9 - 49 - Calm - 30.27 - 10 FEW027 SCT100 None
2019-01-17 22:15 25 9 - 49 - Calm - 30.27 - 10 SCT110 None
2019-01-17 21:55 25 7 - 45 - Calm - 30.27 - 10 BKN120 None
2019-01-17 21:35 25 7 - 45 - Calm - 30.29 - 10 FEW120 None
2019-01-17 21:15 27 7 - 42 - Calm - 30.29 - 10 FEW120 None
2019-01-17 20:55 27 5 - 38 - Calm - 30.29 - 10 None
2019-01-17 20:35 27 5 - 38 - Calm - 30.29 - 10 None
2019-01-17 20:15 27 5 - 38 - Calm - 30.30 - 10 BKN090 None
2019-01-17 19:55 27 3 - 35 - Calm - 30.30 - 10 None
2019-01-17 19:35 27 3 - 35 - Calm - 30.30 - 10 None
2019-01-17 19:15 27 3 - 35 - Calm - 30.30 - 10 OVC100 None
2019-01-17 18:55 27 3 - 35 - Calm - 30.31 - 10 OVC110 None
2019-01-17 18:35 27 3 - 35 - Calm - 30.31 - 10 BKN110 None
2019-01-17 18:15 27 1 23 32 160° 3 - 30.31 - 10 CLR None
2019-01-17 17:55 27 1 - 32 - Calm - 30.31 - 10 FEW120 None
2019-01-17 17:35 27 0 - 30 - Calm - 30.30 - 10 CLR None
2019-01-17 17:15 28 0 22 28 160° 6 - 30.29 - 10 CLR None
2019-01-17 16:55 28 -2 23 25 170° 5 - 30.28 - 10 CLR None
2019-01-17 16:35 28 -2 25 25 180° 3 - 30.29 - 10 None
2019-01-17 16:15 28 -4 23 23 170° 5 - 30.30 - 10 None
2019-01-17 15:55 30 -13 - 14 - Calm - 30.30 - 10 CLR None
2019-01-17 15:35 32 -13 - 13 - Calm - 30.31 - 10 CLR None
2019-01-17 15:15 30 -11 - 15 - Calm - 30.31 - 10 CLR None
2019-01-17 14:55 30 -11 - 15 - Calm - 30.32 - 10 CLR None
2019-01-17 14:35 32 -13 29 13 320° 3 - 30.31 - 10 CLR None
2019-01-17 14:15 32 -13 - 13 - Calm - 30.31 - 10 CLR None
2019-01-17 13:55 32 -13 - 13 - Calm - 30.31 - 10 CLR None
2019-01-17 13:35 32 -13 27 13 Variable 5 - 30.33 - 10 CLR None
2019-01-17 13:15 30 -13 27 14 330° 3 - 30.33 - 10 CLR None
2019-01-17 12:55 30 -13 - 14 - Calm - 30.34 - 10 CLR None
2019-01-17 12:35 30 -13 24 14 350° 6 - 30.35 - 10 CLR None
2019-01-17 12:15 28 -13 22 15 350° 6 - 30.35 - 10 CLR None
2019-01-17 11:55 27 -13 18 16 340° 8 - 30.36 - 10 CLR None
2019-01-17 11:35 28 -13 19 15 350° 10 - 30.37 - 10 CLR None
2019-01-17 11:15 27 -13 18 16 320° 8 - 30.39 - 10 CLR None
2019-01-17 10:55 27 -11 17 17 350° 10 - 30.39 - 10 CLR None
2019-01-17 10:35 25 -11 16 19 20° 8 - 30.40 - 10 CLR None
2019-01-17 10:15 25 -9 13 21 20° 8 14 30.39 - 10 CLR None
2019-01-17 09:55 25 -11 15 19 10° 10 - 30.40 - 10 CLR None
2019-01-17 09:35 23 -11 14 20 350° 8 - 30.39 - 10 CLR None
2019-01-17 09:15 23 -11 12 20 340° 12 - 30.39 - 10 CLR None
2019-01-17 08:55 23 -8 14 24 340° 8 - 30.38 - 10 FEW110 None
2019-01-17 08:35 23 -6 13 27 340° 9 - 30.37 - 10 CLR None
2019-01-17 08:15 21 -4 8 32 340° 8 15 30.36 - 10 CLR None
2019-01-17 07:55 21 -4 8 32 330° 7 15 30.35 - 10 CLR None
2019-01-17 07:35 19 0 6 41 330° 8 14 30.34 - 10 CLR None
2019-01-17 07:15 19 1 5 44 350° 9 15 30.34 - 10 CLR None
2019-01-17 06:55 21 1 10 41 340° 10 - 30.34 - 10 CLR None
2019-01-17 06:35 21 1 7 41 330° 10 17 30.33 - 10 CLR None
2019-01-17 06:15 21 3 9 44 340° 13 - 30.31 - 10 CLR None
2019-01-17 05:55 21 3 6 44 330° 15 21 30.30 - 10 CLR None
2019-01-17 05:35 23 3 11 41 340° 13 - 30.29 - 10 CLR None
2019-01-17 05:15 23 5 11 45 340° 14 - 30.28 - 10 CLR None
2019-01-17 04:55 23 7 8 49 360° 9 21 30.28 - 10 CLR None
2019-01-17 04:35 23 9 8 53 340° 8 21 30.28 - 10 CLR None
2019-01-17 04:15 23 10 11 57 340° 8 14 30.27 - 10 CLR None
2019-01-17 03:55 25 10 12 53 330° 9 15 30.27 - 10 CLR None
2019-01-17 03:35 25 10 11 53 330° 12 17 30.26 - 10 CLR None

Support USWX by starting your Amazon purchase here.